sensor_id;sensor_type;location;lat;lon;timestamp;P1;durP1;ratioP1;P2;durP2;ratioP2
13731;SDS011;6937;56.096;12.664;2022-09-09T00:00:37;3.13;;;1.50;;
13731;SDS011;6937;56.096;12.664;2022-09-09T00:03:13;5.03;;;1.50;;
13731;SDS011;6937;56.096;12.664;2022-09-09T00:05:51;4.50;;;2.03;;
13731;SDS011;6937;56.096;12.664;2022-09-09T00:08:44;2.33;;;1.50;;
13731;SDS011;6937;56.096;12.664;2022-09-09T00:11:36;3.58;;;1.70;;
13731;SDS011;6937;56.096;12.664;2022-09-09T00:14:10;4.80;;;2.13;;
13731;SDS011;6937;56.096;12.664;2022-09-09T00:16:41;3.85;;;2.33;;
13731;SDS011;6937;56.096;12.664;2022-09-09T00:19:19;4.32;;;2.30;;
13731;SDS011;6937;56.096;12.664;2022-09-09T00:27:13;2.58;;;1.98;;
13731;SDS011;6937;56.096;12.664;2022-09-09T00:29:51;3.13;;;1.70;;
13731;SDS011;6937;56.096;12.664;2022-09-09T00:32:20;3.20;;;1.75;;
13731;SDS011;6937;56.096;12.664;2022-09-09T00:34:54;5.63;;;2.00;;
13731;SDS011;6937;56.096;12.664;2022-09-09T00:37:24;3.05;;;2.10;;
13731;SDS011;6937;56.096;12.664;2022-09-09T00:39:51;3.25;;;1.90;;
13731;SDS011;6937;56.096;12.664;2022-09-09T00:42:26;2.72;;;1.95;;
13731;SDS011;6937;56.096;12.664;2022-09-09T00:48:17;2.67;;;1.60;;
13731;SDS011;6937;56.096;12.664;2022-09-09T00:50:57;3.85;;;2.30;;
13731;SDS011;6937;56.096;12.664;2022-09-09T00:58:49;2.60;;;1.90;;
13731;SDS011;6937;56.096;12.664;2022-09-09T01:01:35;3.70;;;1.80;;
13731;SDS011;6937;56.096;12.664;2022-09-09T01:04:01;2.50;;;1.75;;
13731;SDS011;6937;56.096;12.664;2022-09-09T01:06:41;2.47;;;1.80;;
13731;SDS011;6937;56.096;12.664;2022-09-09T01:15:11;2.70;;;2.08;;
13731;SDS011;6937;56.096;12.664;2022-09-09T01:28:08;2.42;;;1.90;;
13731;SDS011;6937;56.096;12.664;2022-09-09T01:30:39;3.13;;;2.10;;
13731;SDS011;6937;56.096;12.664;2022-09-09T01:33:13;3.42;;;2.35;;
13731;SDS011;6937;56.096;12.664;2022-09-09T01:35:52;3.55;;;1.90;;
13731;SDS011;6937;56.096;12.664;2022-09-09T01:38:20;6.22;;;2.17;;
13731;SDS011;6937;56.096;12.664;2022-09-09T01:40:47;2.70;;;1.90;;
13731;SDS011;6937;56.096;12.664;2022-09-09T01:43:14;3.47;;;2.13;;
13731;SDS011;6937;56.096;12.664;2022-09-09T01:45:39;4.47;;;2.42;;
13731;SDS011;6937;56.096;12.664;2022-09-09T01:48:07;2.63;;;2.10;;
13731;SDS011;6937;56.096;12.664;2022-09-09T01:50:32;4.90;;;2.40;;
13731;SDS011;6937;56.096;12.664;2022-09-09T01:52:58;3.63;;;2.33;;
13731;SDS011;6937;56.096;12.664;2022-09-09T01:55:30;3.85;;;2.40;;
13731;SDS011;6937;56.096;12.664;2022-09-09T01:58:15;4.45;;;2.70;;
13731;SDS011;6937;56.096;12.664;2022-09-09T02:01:04;5.18;;;2.80;;
13731;SDS011;6937;56.096;12.664;2022-09-09T02:03:36;3.83;;;2.28;;
13731;SDS011;6937;56.096;12.664;2022-09-09T02:06:08;4.25;;;2.13;;
13731;SDS011;6937;56.096;12.664;2022-09-09T02:08:59;3.78;;;2.75;;
13731;SDS011;6937;56.096;12.664;2022-09-09T02:11:27;3.95;;;2.60;;
13731;SDS011;6937;56.096;12.664;2022-09-09T02:13:56;3.65;;;2.50;;
13731;SDS011;6937;56.096;12.664;2022-09-09T02:16:31;3.33;;;2.30;;
13731;SDS011;6937;56.096;12.664;2022-09-09T02:19:28;3.30;;;2.20;;
13731;SDS011;6937;56.096;12.664;2022-09-09T02:22:07;4.20;;;2.70;;
13731;SDS011;6937;56.096;12.664;2022-09-09T02:24:36;2.42;;;2.00;;
13731;SDS011;6937;56.096;12.664;2022-09-09T02:27:05;3.42;;;2.10;;
13731;SDS011;6937;56.096;12.664;2022-09-09T02:29:38;5.55;;;2.60;;
13731;SDS011;6937;56.096;12.664;2022-09-09T02:32:11;3.42;;;2.38;;
13731;SDS011;6937;56.096;12.664;2022-09-09T02:34:42;3.25;;;2.25;;
13731;SDS011;6937;56.096;12.664;2022-09-09T02:37:10;4.75;;;2.22;;
13731;SDS011;6937;56.096;12.664;2022-09-09T02:39:37;3.45;;;1.95;;
13731;SDS011;6937;56.096;12.664;2022-09-09T02:42:03;5.20;;;2.70;;
13731;SDS011;6937;56.096;12.664;2022-09-09T02:44:30;3.45;;;2.00;;
13731;SDS011;6937;56.096;12.664;2022-09-09T02:50:12;4.00;;;2.30;;
13731;SDS011;6937;56.096;12.664;2022-09-09T02:52:25;3.83;;;2.17;;
13731;SDS011;6937;56.096;12.664;2022-09-09T02:54:58;3.75;;;2.33;;
13731;SDS011;6937;56.096;12.664;2022-09-09T02:57:29;4.32;;;2.25;;
13731;SDS011;6937;56.096;12.664;2022-09-09T02:59:57;5.63;;;2.55;;
13731;SDS011;6937;56.096;12.664;2022-09-09T03:02:23;3.40;;;2.05;;
13731;SDS011;6937;56.096;12.664;2022-09-09T03:04:50;3.92;;;2.78;;
13731;SDS011;6937;56.096;12.664;2022-09-09T03:07:17;4.28;;;2.55;;
13731;SDS011;6937;56.096;12.664;2022-09-09T03:09:43;3.72;;;2.60;;
13731;SDS011;6937;56.096;12.664;2022-09-09T03:12:09;4.45;;;2.85;;
13731;SDS011;6937;56.096;12.664;2022-09-09T03:14:36;7.15;;;2.83;;
13731;SDS011;6937;56.096;12.664;2022-09-09T03:17:03;6.55;;;2.80;;
13731;SDS011;6937;56.096;12.664;2022-09-09T03:19:29;5.32;;;2.90;;
13731;SDS011;6937;56.096;12.664;2022-09-09T03:21:55;4.40;;;2.85;;
13731;SDS011;6937;56.096;12.664;2022-09-09T03:24:20;4.18;;;2.40;;
13731;SDS011;6937;56.096;12.664;2022-09-09T03:26:47;6.00;;;3.05;;
13731;SDS011;6937;56.096;12.664;2022-09-09T03:29:12;6.05;;;2.47;;
13731;SDS011;6937;56.096;12.664;2022-09-09T03:31:38;4.93;;;2.63;;
13731;SDS011;6937;56.096;12.664;2022-09-09T03:34:04;5.60;;;2.65;;
13731;SDS011;6937;56.096;12.664;2022-09-09T03:36:30;5.95;;;2.97;;
13731;SDS011;6937;56.096;12.664;2022-09-09T03:38:56;4.75;;;2.60;;
13731;SDS011;6937;56.096;12.664;2022-09-09T03:41:22;3.67;;;2.50;;
13731;SDS011;6937;56.096;12.664;2022-09-09T03:43:49;3.85;;;2.38;;
13731;SDS011;6937;56.096;12.664;2022-09-09T03:46:16;5.55;;;2.63;;
13731;SDS011;6937;56.096;12.664;2022-09-09T03:48:42;5.43;;;2.72;;
13731;SDS011;6937;56.096;12.664;2022-09-09T03:51:07;4.53;;;2.90;;
13731;SDS011;6937;56.096;12.664;2022-09-09T03:53:32;4.25;;;2.20;;
13731;SDS011;6937;56.096;12.664;2022-09-09T03:55:59;3.50;;;2.50;;
13731;SDS011;6937;56.096;12.664;2022-09-09T03:58:24;3.35;;;2.50;;
13731;SDS011;6937;56.096;12.664;2022-09-09T04:00:58;4.60;;;2.83;;
13731;SDS011;6937;56.096;12.664;2022-09-09T04:03:25;3.75;;;2.60;;
13731;SDS011;6937;56.096;12.664;2022-09-09T04:05:51;4.57;;;2.45;;
13731;SDS011;6937;56.096;12.664;2022-09-09T04:08:18;3.88;;;2.47;;
13731;SDS011;6937;56.096;12.664;2022-09-09T04:10:47;3.55;;;2.60;;
13731;SDS011;6937;56.096;12.664;2022-09-09T04:13:14;6.38;;;2.65;;
13731;SDS011;6937;56.096;12.664;2022-09-09T04:15:41;6.28;;;2.67;;
13731;SDS011;6937;56.096;12.664;2022-09-09T04:18:06;4.75;;;2.60;;
13731;SDS011;6937;56.096;12.664;2022-09-09T04:20:32;6.57;;;2.30;;
13731;SDS011;6937;56.096;12.664;2022-09-09T04:22:57;4.60;;;2.28;;
13731;SDS011;6937;56.096;12.664;2022-09-09T04:25:23;5.18;;;2.65;;
13731;SDS011;6937;56.096;12.664;2022-09-09T04:27:52;4.80;;;2.90;;
13731;SDS011;6937;56.096;12.664;2022-09-09T04:30:19;3.88;;;2.60;;
13731;SDS011;6937;56.096;12.664;2022-09-09T04:32:45;3.65;;;2.70;;
13731;SDS011;6937;56.096;12.664;2022-09-09T04:35:11;4.93;;;2.90;;
13731;SDS011;6937;56.096;12.664;2022-09-09T04:37:36;3.47;;;2.50;;
13731;SDS011;6937;56.096;12.664;2022-09-09T04:40:02;5.95;;;2.83;;
13731;SDS011;6937;56.096;12.664;2022-09-09T04:42:27;4.60;;;2.70;;
13731;SDS011;6937;56.096;12.664;2022-09-09T04:44:53;5.72;;;2.95;;
13731;SDS011;6937;56.096;12.664;2022-09-09T04:47:19;6.18;;;3.05;;
13731;SDS011;6937;56.096;12.664;2022-09-09T04:49:44;4.03;;;2.50;;
13731;SDS011;6937;56.096;12.664;2022-09-09T04:52:10;4.25;;;2.45;;
13731;SDS011;6937;56.096;12.664;2022-09-09T04:54:35;4.80;;;2.95;;
13731;SDS011;6937;56.096;12.664;2022-09-09T04:57:00;5.18;;;2.90;;
13731;SDS011;6937;56.096;12.664;2022-09-09T04:59:26;6.72;;;3.22;;
13731;SDS011;6937;56.096;12.664;2022-09-09T05:01:51;4.53;;;3.00;;
13731;SDS011;6937;56.096;12.664;2022-09-09T05:04:16;4.30;;;2.88;;
13731;SDS011;6937;56.096;12.664;2022-09-09T05:06:42;5.18;;;2.80;;
13731;SDS011;6937;56.096;12.664;2022-09-09T05:09:07;4.45;;;2.70;;
13731;SDS011;6937;56.096;12.664;2022-09-09T05:11:33;6.03;;;2.80;;
13731;SDS011;6937;56.096;12.664;2022-09-09T05:14:01;3.80;;;2.45;;
13731;SDS011;6937;56.096;12.664;2022-09-09T05:16:27;6.05;;;2.72;;
13731;SDS011;6937;56.096;12.664;2022-09-09T05:18:53;5.28;;;3.17;;
13731;SDS011;6937;56.096;12.664;2022-09-09T05:21:21;4.78;;;3.03;;
13731;SDS011;6937;56.096;12.664;2022-09-09T05:23:48;3.35;;;2.78;;
13731;SDS011;6937;56.096;12.664;2022-09-09T05:26:18;4.30;;;2.90;;
13731;SDS011;6937;56.096;12.664;2022-09-09T05:28:45;5.03;;;3.22;;
13731;SDS011;6937;56.096;12.664;2022-09-09T05:31:12;5.20;;;2.42;;
13731;SDS011;6937;56.096;12.664;2022-09-09T05:33:39;5.38;;;2.88;;
13731;SDS011;6937;56.096;12.664;2022-09-09T05:36:10;4.07;;;2.95;;
13731;SDS011;6937;56.096;12.664;2022-09-09T05:38:40;6.22;;;3.10;;
13731;SDS011;6937;56.096;12.664;2022-09-09T05:41:06;8.52;;;3.00;;
13731;SDS011;6937;56.096;12.664;2022-09-09T05:43:33;5.35;;;2.72;;
13731;SDS011;6937;56.096;12.664;2022-09-09T05:46:10;6.53;;;2.88;;
13731;SDS011;6937;56.096;12.664;2022-09-09T05:48:38;3.90;;;2.35;;
13731;SDS011;6937;56.096;12.664;2022-09-09T05:51:09;4.82;;;3.13;;
13731;SDS011;6937;56.096;12.664;2022-09-09T05:53:37;4.70;;;2.83;;
13731;SDS011;6937;56.096;12.664;2022-09-09T05:58:29;5.15;;;2.90;;
13731;SDS011;6937;56.096;12.664;2022-09-09T06:01:05;6.07;;;3.00;;
13731;SDS011;6937;56.096;12.664;2022-09-09T06:03:35;4.47;;;2.80;;
13731;SDS011;6937;56.096;12.664;2022-09-09T06:06:06;4.50;;;2.50;;
13731;SDS011;6937;56.096;12.664;2022-09-09T06:08:33;4.00;;;2.50;;
13731;SDS011;6937;56.096;12.664;2022-09-09T06:11:04;4.38;;;2.72;;
13731;SDS011;6937;56.096;12.664;2022-09-09T06:13:31;3.58;;;2.50;;
13731;SDS011;6937;56.096;12.664;2022-09-09T06:15:57;5.22;;;3.00;;
13731;SDS011;6937;56.096;12.664;2022-09-09T06:18:23;4.20;;;3.08;;
13731;SDS011;6937;56.096;12.664;2022-09-09T06:20:55;4.65;;;2.85;;
13731;SDS011;6937;56.096;12.664;2022-09-09T06:23:26;3.33;;;2.42;;
13731;SDS011;6937;56.096;12.664;2022-09-09T06:26:05;3.88;;;2.30;;
13731;SDS011;6937;56.096;12.664;2022-09-09T06:28:31;3.92;;;2.50;;
13731;SDS011;6937;56.096;12.664;2022-09-09T06:31:00;3.90;;;2.38;;
13731;SDS011;6937;56.096;12.664;2022-09-09T06:33:30;3.08;;;2.40;;
13731;SDS011;6937;56.096;12.664;2022-09-09T06:35:56;3.65;;;2.80;;
13731;SDS011;6937;56.096;12.664;2022-09-09T06:38:22;3.90;;;2.92;;
13731;SDS011;6937;56.096;12.664;2022-09-09T06:40:52;4.13;;;2.53;;
13731;SDS011;6937;56.096;12.664;2022-09-09T06:43:20;3.33;;;2.35;;
13731;SDS011;6937;56.096;12.664;2022-09-09T06:45:52;2.47;;;2.25;;
13731;SDS011;6937;56.096;12.664;2022-09-09T06:48:22;3.38;;;2.65;;
13731;SDS011;6937;56.096;12.664;2022-09-09T06:50:47;3.88;;;2.20;;
13731;SDS011;6937;56.096;12.664;2022-09-09T06:53:17;3.58;;;2.20;;
13731;SDS011;6937;56.096;12.664;2022-09-09T06:55:44;4.20;;;2.80;;
13731;SDS011;6937;56.096;12.664;2022-09-09T06:58:10;7.72;;;2.25;;
13731;SDS011;6937;56.096;12.664;2022-09-09T07:00:36;3.80;;;2.67;;
13731;SDS011;6937;56.096;12.664;2022-09-09T07:03:03;4.45;;;2.63;;
13731;SDS011;6937;56.096;12.664;2022-09-09T07:05:29;3.90;;;2.65;;
13731;SDS011;6937;56.096;12.664;2022-09-09T07:07:54;4.72;;;2.58;;
13731;SDS011;6937;56.096;12.664;2022-09-09T07:10:20;5.43;;;3.00;;
13731;SDS011;6937;56.096;12.664;2022-09-09T07:12:49;3.42;;;2.33;;
13731;SDS011;6937;56.096;12.664;2022-09-09T07:15:17;3.53;;;2.65;;
13731;SDS011;6937;56.096;12.664;2022-09-09T07:17:43;4.50;;;2.65;;
13731;SDS011;6937;56.096;12.664;2022-09-09T07:20:09;3.55;;;2.42;;
13731;SDS011;6937;56.096;12.664;2022-09-09T07:22:34;3.55;;;2.70;;
13731;SDS011;6937;56.096;12.664;2022-09-09T07:25:00;4.70;;;2.65;;
13731;SDS011;6937;56.096;12.664;2022-09-09T07:27:27;4.70;;;2.60;;
13731;SDS011;6937;56.096;12.664;2022-09-09T07:29:52;4.93;;;2.80;;
13731;SDS011;6937;56.096;12.664;2022-09-09T07:32:19;4.05;;;2.70;;
13731;SDS011;6937;56.096;12.664;2022-09-09T07:34:45;4.28;;;2.80;;
13731;SDS011;6937;56.096;12.664;2022-09-09T07:37:11;4.75;;;3.33;;
13731;SDS011;6937;56.096;12.664;2022-09-09T07:39:38;7.25;;;3.60;;
13731;SDS011;6937;56.096;12.664;2022-09-09T07:42:04;5.32;;;3.72;;
13731;SDS011;6937;56.096;12.664;2022-09-09T07:44:30;5.88;;;3.80;;
13731;SDS011;6937;56.096;12.664;2022-09-09T07:46:57;5.07;;;3.67;;
13731;SDS011;6937;56.096;12.664;2022-09-09T07:49:22;6.38;;;4.30;;
13731;SDS011;6937;56.096;12.664;2022-09-09T07:51:48;5.28;;;3.28;;
13731;SDS011;6937;56.096;12.664;2022-09-09T07:54:15;5.43;;;2.97;;
13731;SDS011;6937;56.096;12.664;2022-09-09T07:56:44;4.97;;;2.70;;
13731;SDS011;6937;56.096;12.664;2022-09-09T07:59:10;3.47;;;2.70;;
13731;SDS011;6937;56.096;12.664;2022-09-09T08:01:40;3.90;;;2.42;;
13731;SDS011;6937;56.096;12.664;2022-09-09T08:04:11;3.53;;;2.40;;
13731;SDS011;6937;56.096;12.664;2022-09-09T08:06:43;3.78;;;1.95;;
13731;SDS011;6937;56.096;12.664;2022-09-09T08:09:11;3.03;;;2.13;;
13731;SDS011;6937;56.096;12.664;2022-09-09T08:11:36;3.08;;;1.88;;
13731;SDS011;6937;56.096;12.664;2022-09-09T08:14:03;3.20;;;2.30;;
13731;SDS011;6937;56.096;12.664;2022-09-09T08:16:30;3.38;;;1.92;;
13731;SDS011;6937;56.096;12.664;2022-09-09T08:18:57;3.58;;;2.15;;
13731;SDS011;6937;56.096;12.664;2022-09-09T08:21:24;4.38;;;2.20;;
13731;SDS011;6937;56.096;12.664;2022-09-09T08:23:53;4.72;;;2.35;;
13731;SDS011;6937;56.096;12.664;2022-09-09T08:26:20;2.80;;;2.17;;
13731;SDS011;6937;56.096;12.664;2022-09-09T08:28:48;4.18;;;2.70;;
13731;SDS011;6937;56.096;12.664;2022-09-09T08:31:17;3.70;;;2.95;;
13731;SDS011;6937;56.096;12.664;2022-09-09T08:33:47;4.18;;;3.42;;
13731;SDS011;6937;56.096;12.664;2022-09-09T08:36:14;3.33;;;3.03;;
13731;SDS011;6937;56.096;12.664;2022-09-09T08:38:42;3.17;;;2.80;;
13731;SDS011;6937;56.096;12.664;2022-09-09T08:41:19;3.28;;;2.30;;
13731;SDS011;6937;56.096;12.664;2022-09-09T08:50:22;2.83;;;1.70;;
13731;SDS011;6937;56.096;12.664;2022-09-09T08:58:02;1.85;;;1.35;;
13731;SDS011;6937;56.096;12.664;2022-09-09T09:00:40;1.83;;;1.40;;
13731;SDS011;6937;56.096;12.664;2022-09-09T09:03:22;2.03;;;1.40;;
13731;SDS011;6937;56.096;12.664;2022-09-09T09:06:13;2.03;;;1.20;;
13731;SDS011;6937;56.096;12.664;2022-09-09T09:11:24;2.28;;;1.40;;
13731;SDS011;6937;56.096;12.664;2022-09-09T09:13:54;4.10;;;1.90;;
13731;SDS011;6937;56.096;12.664;2022-09-09T09:19:00;1.60;;;1.30;;
13731;SDS011;6937;56.096;12.664;2022-09-09T09:21:42;2.35;;;1.25;;
13731;SDS011;6937;56.096;12.664;2022-09-09T09:26:44;1.80;;;1.40;;
13731;SDS011;6937;56.096;12.664;2022-09-09T09:29:13;2.55;;;1.67;;
13731;SDS011;6937;56.096;12.664;2022-09-09T09:31:59;2.00;;;1.40;;
13731;SDS011;6937;56.096;12.664;2022-09-09T09:34:28;1.27;;;1.17;;
13731;SDS011;6937;56.096;12.664;2022-09-09T09:36:57;1.45;;;1.10;;
13731;SDS011;6937;56.096;12.664;2022-09-09T09:39:28;1.70;;;1.25;;
13731;SDS011;6937;56.096;12.664;2022-09-09T09:41:55;2.72;;;1.10;;
13731;SDS011;6937;56.096;12.664;2022-09-09T09:44:29;2.03;;;1.20;;
13731;SDS011;6937;56.096;12.664;2022-09-09T09:49:52;1.42;;;1.00;;
13731;SDS011;6937;56.096;12.664;2022-09-09T09:52:21;3.60;;;1.30;;
13731;SDS011;6937;56.096;12.664;2022-09-09T09:54:50;0.98;;;0.95;;
13731;SDS011;6937;56.096;12.664;2022-09-09T09:57:17;1.60;;;1.15;;
13731;SDS011;6937;56.096;12.664;2022-09-09T09:59:44;1.77;;;1.15;;
13731;SDS011;6937;56.096;12.664;2022-09-09T10:05:03;1.75;;;1.38;;
13731;SDS011;6937;56.096;12.664;2022-09-09T10:07:34;1.38;;;1.08;;
13731;SDS011;6937;56.096;12.664;2022-09-09T10:10:01;1.38;;;1.00;;
13731;SDS011;6937;56.096;12.664;2022-09-09T10:12:30;1.38;;;1.13;;
13731;SDS011;6937;56.096;12.664;2022-09-09T10:15:16;1.60;;;0.80;;
13731;SDS011;6937;56.096;12.664;2022-09-09T10:20:16;1.10;;;1.00;;
13731;SDS011;6937;56.096;12.664;2022-09-09T10:22:52;1.80;;;1.00;;
13731;SDS011;6937;56.096;12.664;2022-09-09T10:25:56;1.05;;;0.93;;
13731;SDS011;6937;56.096;12.664;2022-09-09T10:37:00;0.90;;;0.90;;
13731;SDS011;6937;56.096;12.664;2022-09-09T10:39:39;1.08;;;0.90;;
13731;SDS011;6937;56.096;12.664;2022-09-09T10:44:55;1.15;;;1.00;;
13731;SDS011;6937;56.096;12.664;2022-09-09T10:47:39;1.65;;;1.05;;
13731;SDS011;6937;56.096;12.664;2022-09-09T10:50:40;1.30;;;1.02;;
13731;SDS011;6937;56.096;12.664;2022-09-09T10:55:48;1.35;;;1.25;;
13731;SDS011;6937;56.096;12.664;2022-09-09T10:58:23;1.25;;;1.15;;
13731;SDS011;6937;56.096;12.664;2022-09-09T11:00:56;2.40;;;1.20;;
13731;SDS011;6937;56.096;12.664;2022-09-09T11:03:28;1.60;;;1.10;;
13731;SDS011;6937;56.096;12.664;2022-09-09T11:08:30;1.77;;;1.00;;
13731;SDS011;6937;56.096;12.664;2022-09-09T11:16:28;1.25;;;1.15;;
13731;SDS011;6937;56.096;12.664;2022-09-09T11:21:46;1.75;;;1.35;;
13731;SDS011;6937;56.096;12.664;2022-09-09T11:24:35;1.42;;;1.30;;
13731;SDS011;6937;56.096;12.664;2022-09-09T11:35:32;1.50;;;1.40;;
13731;SDS011;6937;56.096;12.664;2022-09-09T11:40:59;1.70;;;1.60;;
13731;SDS011;6937;56.096;12.664;2022-09-09T11:43:29;1.52;;;1.42;;
13731;SDS011;6937;56.096;12.664;2022-09-09T11:45:58;1.40;;;1.30;;
13731;SDS011;6937;56.096;12.664;2022-09-09T11:48:34;1.73;;;1.60;;
13731;SDS011;6937;56.096;12.664;2022-09-09T11:51:25;1.70;;;1.60;;
13731;SDS011;6937;56.096;12.664;2022-09-09T11:56:26;1.67;;;1.55;;
13731;SDS011;6937;56.096;12.664;2022-09-09T11:58:57;1.80;;;1.70;;
13731;SDS011;6937;56.096;12.664;2022-09-09T12:07:37;1.60;;;1.50;;
13731;SDS011;6937;56.096;12.664;2022-09-09T12:12:34;2.00;;;1.90;;
13731;SDS011;6937;56.096;12.664;2022-09-09T12:15:03;1.50;;;1.40;;
13731;SDS011;6937;56.096;12.664;2022-09-09T12:17:46;1.77;;;1.60;;
13731;SDS011;6937;56.096;12.664;2022-09-09T12:20:17;2.28;;;1.60;;
13731;SDS011;6937;56.096;12.664;2022-09-09T12:28:19;1.65;;;1.55;;
13731;SDS011;6937;56.096;12.664;2022-09-09T12:30:56;1.50;;;1.40;;
13731;SDS011;6937;56.096;12.664;2022-09-09T12:33:33;1.80;;;1.70;;
13731;SDS011;6937;56.096;12.664;2022-09-09T12:36:03;1.98;;;1.88;;
13731;SDS011;6937;56.096;12.664;2022-09-09T12:38:34;1.95;;;1.80;;
13731;SDS011;6937;56.096;12.664;2022-09-09T12:41:02;1.40;;;1.30;;
13731;SDS011;6937;56.096;12.664;2022-09-09T12:43:28;1.35;;;1.25;;
13731;SDS011;6937;56.096;12.664;2022-09-09T12:45:55;1.63;;;1.52;;
13731;SDS011;6937;56.096;12.664;2022-09-09T12:48:35;1.60;;;1.42;;
13731;SDS011;6937;56.096;12.664;2022-09-09T12:51:05;2.05;;;1.85;;
13731;SDS011;6937;56.096;12.664;2022-09-09T12:53:41;2.35;;;2.15;;
13731;SDS011;6937;56.096;12.664;2022-09-09T12:56:08;2.13;;;2.03;;
13731;SDS011;6937;56.096;12.664;2022-09-09T12:58:44;2.40;;;2.00;;
13731;SDS011;6937;56.096;12.664;2022-09-09T13:01:18;2.47;;;2.38;;
13731;SDS011;6937;56.096;12.664;2022-09-09T13:03:47;2.70;;;2.50;;
13731;SDS011;6937;56.096;12.664;2022-09-09T13:06:17;2.10;;;2.00;;
13731;SDS011;6937;56.096;12.664;2022-09-09T13:08:45;3.35;;;3.05;;
13731;SDS011;6937;56.096;12.664;2022-09-09T13:11:12;3.90;;;3.50;;
13731;SDS011;6937;56.096;12.664;2022-09-09T13:13:42;4.30;;;3.90;;
13731;SDS011;6937;56.096;12.664;2022-09-09T13:19:20;5.15;;;4.65;;
13731;SDS011;6937;56.096;12.664;2022-09-09T13:21:46;5.88;;;5.30;;
13731;SDS011;6937;56.096;12.664;2022-09-09T13:24:26;5.22;;;4.75;;
13731;SDS011;6937;56.096;12.664;2022-09-09T13:27:40;5.95;;;4.93;;
13731;SDS011;6937;56.096;12.664;2022-09-09T13:29:52;6.28;;;5.78;;
13731;SDS011;6937;56.096;12.664;2022-09-09T13:32:22;6.47;;;5.82;;
13731;SDS011;6937;56.096;12.664;2022-09-09T13:39:58;6.45;;;5.95;;
13731;SDS011;6937;56.096;12.664;2022-09-09T13:42:25;6.18;;;5.60;;
13731;SDS011;6937;56.096;12.664;2022-09-09T13:44:53;4.95;;;4.55;;
13731;SDS011;6937;56.096;12.664;2022-09-09T13:47:21;4.30;;;4.00;;
13731;SDS011;6937;56.096;12.664;2022-09-09T13:49:52;5.60;;;3.88;;
13731;SDS011;6937;56.096;12.664;2022-09-09T13:52:18;4.20;;;3.80;;
13731;SDS011;6937;56.096;12.664;2022-09-09T13:54:47;5.15;;;4.35;;
13731;SDS011;6937;56.096;12.664;2022-09-09T13:57:22;6.25;;;4.95;;
13731;SDS011;6937;56.096;12.664;2022-09-09T13:59:50;6.18;;;5.60;;
13731;SDS011;6937;56.096;12.664;2022-09-09T14:02:17;6.05;;;5.45;;
13731;SDS011;6937;56.096;12.664;2022-09-09T14:04:43;6.60;;;5.97;;
13731;SDS011;6937;56.096;12.664;2022-09-09T14:07:13;6.50;;;5.90;;
13731;SDS011;6937;56.096;12.664;2022-09-09T14:09:40;6.38;;;5.78;;
13731;SDS011;6937;56.096;12.664;2022-09-09T14:12:12;6.93;;;6.18;;
13731;SDS011;6937;56.096;12.664;2022-09-09T14:14:40;6.18;;;5.68;;
13731;SDS011;6937;56.096;12.664;2022-09-09T14:17:06;6.22;;;5.53;;
13731;SDS011;6937;56.096;12.664;2022-09-09T14:19:32;6.03;;;5.43;;
13731;SDS011;6937;56.096;12.664;2022-09-09T14:21:57;6.20;;;5.47;;
13731;SDS011;6937;56.096;12.664;2022-09-09T14:24:23;5.63;;;5.10;;
13731;SDS011;6937;56.096;12.664;2022-09-09T14:26:50;5.75;;;5.20;;
13731;SDS011;6937;56.096;12.664;2022-09-09T14:29:15;6.55;;;5.85;;
13731;SDS011;6937;56.096;12.664;2022-09-09T14:31:41;6.28;;;5.70;;
13731;SDS011;6937;56.096;12.664;2022-09-09T14:34:06;5.70;;;5.20;;
13731;SDS011;6937;56.096;12.664;2022-09-09T14:36:32;5.53;;;4.90;;
13731;SDS011;6937;56.096;12.664;2022-09-09T14:38:58;6.10;;;5.50;;
13731;SDS011;6937;56.096;12.664;2022-09-09T14:41:23;5.15;;;4.35;;
13731;SDS011;6937;56.096;12.664;2022-09-09T14:43:50;4.95;;;4.45;;
13731;SDS011;6937;56.096;12.664;2022-09-09T14:46:17;4.50;;;4.10;;
13731;SDS011;6937;56.096;12.664;2022-09-09T14:48:44;4.78;;;4.03;;
13731;SDS011;6937;56.096;12.664;2022-09-09T14:51:11;4.95;;;4.43;;
13731;SDS011;6937;56.096;12.664;2022-09-09T14:53:38;5.20;;;4.70;;
13731;SDS011;6937;56.096;12.664;2022-09-09T14:56:06;5.50;;;5.03;;
13731;SDS011;6937;56.096;12.664;2022-09-09T14:58:36;5.85;;;4.95;;
13731;SDS011;6937;56.096;12.664;2022-09-09T15:01:13;5.25;;;4.20;;
13731;SDS011;6937;56.096;12.664;2022-09-09T15:03:43;4.93;;;3.97;;
13731;SDS011;6937;56.096;12.664;2022-09-09T15:06:14;3.60;;;3.30;;
13731;SDS011;6937;56.096;12.664;2022-09-09T15:08:40;4.30;;;3.90;;
13731;SDS011;6937;56.096;12.664;2022-09-09T15:11:07;4.15;;;3.75;;
13731;SDS011;6937;56.096;12.664;2022-09-09T15:13:34;4.43;;;4.03;;
13731;SDS011;6937;56.096;12.664;2022-09-09T15:16:05;5.00;;;4.60;;
13731;SDS011;6937;56.096;12.664;2022-09-09T15:18:41;5.00;;;4.50;;
13731;SDS011;6937;56.096;12.664;2022-09-09T15:21:15;4.63;;;4.22;;
13731;SDS011;6937;56.096;12.664;2022-09-09T15:23:42;5.32;;;4.70;;
13731;SDS011;6937;56.096;12.664;2022-09-09T15:26:08;4.50;;;4.07;;
13731;SDS011;6937;56.096;12.664;2022-09-09T15:28:35;5.93;;;4.28;;
13731;SDS011;6937;56.096;12.664;2022-09-09T15:31:05;4.93;;;4.43;;
13731;SDS011;6937;56.096;12.664;2022-09-09T15:33:32;4.72;;;4.32;;
13731;SDS011;6937;56.096;12.664;2022-09-09T15:35:58;5.55;;;4.70;;
13731;SDS011;6937;56.096;12.664;2022-09-09T15:38:23;5.63;;;5.00;;
13731;SDS011;6937;56.096;12.664;2022-09-09T15:40:53;7.07;;;4.70;;
13731;SDS011;6937;56.096;12.664;2022-09-09T15:43:19;4.88;;;4.47;;
13731;SDS011;6937;56.096;12.664;2022-09-09T15:45:45;5.00;;;4.50;;
13731;SDS011;6937;56.096;12.664;2022-09-09T15:48:13;5.20;;;4.80;;
13731;SDS011;6937;56.096;12.664;2022-09-09T15:50:39;5.97;;;5.35;;
13731;SDS011;6937;56.096;12.664;2022-09-09T15:53:04;5.20;;;4.70;;
13731;SDS011;6937;56.096;12.664;2022-09-09T15:55:31;6.80;;;5.32;;
13731;SDS011;6937;56.096;12.664;2022-09-09T15:57:56;5.18;;;4.68;;
13731;SDS011;6937;56.096;12.664;2022-09-09T16:00:22;5.25;;;4.85;;
13731;SDS011;6937;56.096;12.664;2022-09-09T16:02:49;5.78;;;5.00;;
13731;SDS011;6937;56.096;12.664;2022-09-09T16:05:14;6.63;;;5.03;;
13731;SDS011;6937;56.096;12.664;2022-09-09T16:07:40;5.28;;;4.78;;
13731;SDS011;6937;56.096;12.664;2022-09-09T16:10:07;4.40;;;4.00;;
13731;SDS011;6937;56.096;12.664;2022-09-09T16:12:33;5.18;;;4.68;;
13731;SDS011;6937;56.096;12.664;2022-09-09T16:14:58;5.88;;;5.38;;
13731;SDS011;6937;56.096;12.664;2022-09-09T16:17:24;5.20;;;4.70;;
13731;SDS011;6937;56.096;12.664;2022-09-09T16:19:49;4.80;;;4.25;;
13731;SDS011;6937;56.096;12.664;2022-09-09T16:22:15;5.22;;;4.38;;
13731;SDS011;6937;56.096;12.664;2022-09-09T16:24:41;4.20;;;3.90;;
13731;SDS011;6937;56.096;12.664;2022-09-09T16:27:06;4.90;;;4.50;;
13731;SDS011;6937;56.096;12.664;2022-09-09T16:29:32;5.32;;;4.63;;
13731;SDS011;6937;56.096;12.664;2022-09-09T16:31:58;4.95;;;4.47;;
13731;SDS011;6937;56.096;12.664;2022-09-09T16:34:25;5.32;;;4.80;;
13731;SDS011;6937;56.096;12.664;2022-09-09T16:36:50;5.35;;;4.55;;
13731;SDS011;6937;56.096;12.664;2022-09-09T16:39:17;5.30;;;3.78;;
13731;SDS011;6937;56.096;12.664;2022-09-09T16:41:44;5.30;;;4.75;;
13731;SDS011;6937;56.096;12.664;2022-09-09T16:44:12;5.53;;;4.65;;
13731;SDS011;6937;56.096;12.664;2022-09-09T16:46:41;4.72;;;4.15;;
13731;SDS011;6937;56.096;12.664;2022-09-09T16:49:08;4.45;;;3.72;;
13731;SDS011;6937;56.096;12.664;2022-09-09T16:51:42;3.60;;;3.30;;
13731;SDS011;6937;56.096;12.664;2022-09-09T16:54:12;4.65;;;4.25;;
13731;SDS011;6937;56.096;12.664;2022-09-09T16:56:40;4.28;;;3.80;;
13731;SDS011;6937;56.096;12.664;2022-09-09T16:59:08;4.63;;;4.10;;
13731;SDS011;6937;56.096;12.664;2022-09-09T17:01:38;4.38;;;3.95;;
13731;SDS011;6937;56.096;12.664;2022-09-09T17:04:10;4.30;;;3.90;;
13731;SDS011;6937;56.096;12.664;2022-09-09T17:06:38;3.53;;;3.22;;